sensor_id;sensor_type;location;lat;lon;timestamp;P1;durP1;ratioP1;P2;durP2;ratioP2
2872;SDS011;1444;49.166;7.312;2022-07-01T00:02:26;5.60;;;1.50;;
2872;SDS011;1444;49.166;7.312;2022-07-01T00:04:53;1.87;;;1.20;;
2872;SDS011;1444;49.166;7.312;2022-07-01T00:07:19;2.87;;;1.23;;
2872;SDS011;1444;49.166;7.312;2022-07-01T00:09:46;2.93;;;1.57;;
2872;SDS011;1444;49.166;7.312;2022-07-01T00:12:13;3.37;;;1.60;;
2872;SDS011;1444;49.166;7.312;2022-07-01T00:14:39;3.23;;;1.73;;
2872;SDS011;1444;49.166;7.312;2022-07-01T00:17:07;2.83;;;2.00;;
2872;SDS011;1444;49.166;7.312;2022-07-01T00:19:35;1.90;;;1.63;;
2872;SDS011;1444;49.166;7.312;2022-07-01T00:22:02;2.57;;;1.47;;
2872;SDS011;1444;49.166;7.312;2022-07-01T00:24:29;2.20;;;2.00;;
2872;SDS011;1444;49.166;7.312;2022-07-01T00:26:55;2.10;;;1.90;;
2872;SDS011;1444;49.166;7.312;2022-07-01T00:29:22;2.50;;;1.60;;
2872;SDS011;1444;49.166;7.312;2022-07-01T00:31:49;3.23;;;1.80;;
2872;SDS011;1444;49.166;7.312;2022-07-01T00:34:15;2.63;;;1.97;;
2872;SDS011;1444;49.166;7.312;2022-07-01T00:36:43;3.80;;;1.50;;
2872;SDS011;1444;49.166;7.312;2022-07-01T00:39:10;2.53;;;1.73;;
2872;SDS011;1444;49.166;7.312;2022-07-01T00:41:37;2.10;;;1.40;;
2872;SDS011;1444;49.166;7.312;2022-07-01T00:44:03;2.63;;;1.87;;
2872;SDS011;1444;49.166;7.312;2022-07-01T00:46:31;2.00;;;1.40;;
2872;SDS011;1444;49.166;7.312;2022-07-01T00:48:58;5.50;;;1.40;;
2872;SDS011;1444;49.166;7.312;2022-07-01T00:51:26;3.90;;;1.57;;
2872;SDS011;1444;49.166;7.312;2022-07-01T00:53:55;2.20;;;1.70;;
2872;SDS011;1444;49.166;7.312;2022-07-01T00:56:23;2.63;;;2.03;;
2872;SDS011;1444;49.166;7.312;2022-07-01T00:58:50;2.23;;;2.00;;
2872;SDS011;1444;49.166;7.312;2022-07-01T01:01:17;2.80;;;2.50;;
2872;SDS011;1444;49.166;7.312;2022-07-01T01:03:45;3.60;;;2.00;;
2872;SDS011;1444;49.166;7.312;2022-07-01T01:06:12;2.10;;;1.53;;
2872;SDS011;1444;49.166;7.312;2022-07-01T01:08:39;4.50;;;1.90;;
2872;SDS011;1444;49.166;7.312;2022-07-01T01:11:07;2.70;;;2.27;;
2872;SDS011;1444;49.166;7.312;2022-07-01T01:13:34;3.37;;;2.17;;
2872;SDS011;1444;49.166;7.312;2022-07-01T01:16:01;2.60;;;2.17;;
2872;SDS011;1444;49.166;7.312;2022-07-01T01:18:27;2.67;;;2.27;;
2872;SDS011;1444;49.166;7.312;2022-07-01T01:20:56;4.20;;;1.97;;
2872;SDS011;1444;49.166;7.312;2022-07-01T01:23:22;1.90;;;1.67;;
2872;SDS011;1444;49.166;7.312;2022-07-01T01:25:49;2.57;;;1.93;;
2872;SDS011;1444;49.166;7.312;2022-07-01T01:28:16;3.13;;;1.80;;
2872;SDS011;1444;49.166;7.312;2022-07-01T01:30:43;2.80;;;2.30;;
2872;SDS011;1444;49.166;7.312;2022-07-01T01:33:10;2.10;;;1.90;;
2872;SDS011;1444;49.166;7.312;2022-07-01T01:35:37;2.10;;;1.80;;
2872;SDS011;1444;49.166;7.312;2022-07-01T01:38:05;2.93;;;2.63;;
2872;SDS011;1444;49.166;7.312;2022-07-01T01:40:32;3.77;;;2.53;;
2872;SDS011;1444;49.166;7.312;2022-07-01T01:42:59;7.33;;;2.77;;
2872;SDS011;1444;49.166;7.312;2022-07-01T01:45:25;4.70;;;2.03;;
2872;SDS011;1444;49.166;7.312;2022-07-01T01:47:53;2.77;;;2.47;;
2872;SDS011;1444;49.166;7.312;2022-07-01T01:50:19;11.53;;;2.20;;
2872;SDS011;1444;49.166;7.312;2022-07-01T01:52:47;2.50;;;2.20;;
2872;SDS011;1444;49.166;7.312;2022-07-01T01:55:15;3.13;;;2.83;;
2872;SDS011;1444;49.166;7.312;2022-07-01T01:57:41;3.60;;;1.83;;
2872;SDS011;1444;49.166;7.312;2022-07-01T02:00:08;7.30;;;3.27;;
2872;SDS011;1444;49.166;7.312;2022-07-01T02:02:36;2.63;;;2.10;;
2872;SDS011;1444;49.166;7.312;2022-07-01T02:05:03;2.27;;;2.07;;
2872;SDS011;1444;49.166;7.312;2022-07-01T02:07:30;3.23;;;1.87;;
2872;SDS011;1444;49.166;7.312;2022-07-01T02:09:56;1.93;;;1.73;;
2872;SDS011;1444;49.166;7.312;2022-07-01T02:12:24;1.93;;;1.57;;
2872;SDS011;1444;49.166;7.312;2022-07-01T02:14:51;3.60;;;1.70;;
2872;SDS011;1444;49.166;7.312;2022-07-01T02:17:18;8.80;;;3.53;;
2872;SDS011;1444;49.166;7.312;2022-07-01T02:19:44;3.17;;;1.50;;
2872;SDS011;1444;49.166;7.312;2022-07-01T02:22:11;4.43;;;1.50;;
2872;SDS011;1444;49.166;7.312;2022-07-01T02:24:38;2.53;;;1.63;;
2872;SDS011;1444;49.166;7.312;2022-07-01T02:27:04;2.33;;;2.13;;
2872;SDS011;1444;49.166;7.312;2022-07-01T02:29:33;4.70;;;1.87;;
2872;SDS011;1444;49.166;7.312;2022-07-01T02:31:59;2.93;;;2.00;;
2872;SDS011;1444;49.166;7.312;2022-07-01T02:34:26;2.60;;;2.40;;
2872;SDS011;1444;49.166;7.312;2022-07-01T02:36:53;3.40;;;1.93;;
2872;SDS011;1444;49.166;7.312;2022-07-01T02:39:20;3.27;;;2.17;;
2872;SDS011;1444;49.166;7.312;2022-07-01T02:41:47;3.63;;;2.50;;
2872;SDS011;1444;49.166;7.312;2022-07-01T02:44:33;4.43;;;2.63;;
2872;SDS011;1444;49.166;7.312;2022-07-01T02:47:00;2.83;;;2.53;;
2872;SDS011;1444;49.166;7.312;2022-07-01T02:49:27;4.50;;;3.20;;
2872;SDS011;1444;49.166;7.312;2022-07-01T02:51:53;5.00;;;3.20;;
2872;SDS011;1444;49.166;7.312;2022-07-01T02:54:20;4.23;;;3.17;;
2872;SDS011;1444;49.166;7.312;2022-07-01T02:56:47;3.90;;;2.53;;
2872;SDS011;1444;49.166;7.312;2022-07-01T02:59:13;3.93;;;3.63;;
2872;SDS011;1444;49.166;7.312;2022-07-01T03:01:41;3.47;;;2.60;;
2872;SDS011;1444;49.166;7.312;2022-07-01T03:04:08;3.97;;;3.67;;
2872;SDS011;1444;49.166;7.312;2022-07-01T03:06:35;4.43;;;3.93;;
2872;SDS011;1444;49.166;7.312;2022-07-01T03:09:01;5.90;;;3.80;;
2872;SDS011;1444;49.166;7.312;2022-07-01T03:11:28;4.43;;;3.83;;
2872;SDS011;1444;49.166;7.312;2022-07-01T03:13:55;4.13;;;3.53;;
2872;SDS011;1444;49.166;7.312;2022-07-01T03:16:22;4.23;;;3.83;;
2872;SDS011;1444;49.166;7.312;2022-07-01T03:18:50;5.80;;;4.20;;
2872;SDS011;1444;49.166;7.312;2022-07-01T03:21:16;4.47;;;4.07;;
2872;SDS011;1444;49.166;7.312;2022-07-01T03:23:43;3.60;;;3.30;;
2872;SDS011;1444;49.166;7.312;2022-07-01T03:26:09;4.73;;;4.13;;
2872;SDS011;1444;49.166;7.312;2022-07-01T03:28:36;3.83;;;3.37;;
2872;SDS011;1444;49.166;7.312;2022-07-01T03:31:03;4.33;;;3.93;;
2872;SDS011;1444;49.166;7.312;2022-07-01T03:33:29;3.87;;;3.50;;
2872;SDS011;1444;49.166;7.312;2022-07-01T03:35:57;3.23;;;3.00;;
2872;SDS011;1444;49.166;7.312;2022-07-01T03:38:24;8.27;;;3.90;;
2872;SDS011;1444;49.166;7.312;2022-07-01T03:40:51;5.27;;;2.77;;
2872;SDS011;1444;49.166;7.312;2022-07-01T03:43:18;3.70;;;3.40;;
2872;SDS011;1444;49.166;7.312;2022-07-01T03:45:44;7.20;;;3.00;;
2872;SDS011;1444;49.166;7.312;2022-07-01T03:48:11;4.30;;;3.67;;
2872;SDS011;1444;49.166;7.312;2022-07-01T03:50:38;3.03;;;2.23;;
2872;SDS011;1444;49.166;7.312;2022-07-01T03:53:06;4.30;;;3.90;;
2872;SDS011;1444;49.166;7.312;2022-07-01T03:55:50;3.60;;;3.30;;
2872;SDS011;1444;49.166;7.312;2022-07-01T03:58:17;5.30;;;3.77;;
2872;SDS011;1444;49.166;7.312;2022-07-01T04:00:44;2.70;;;2.50;;
2872;SDS011;1444;49.166;7.312;2022-07-01T04:03:10;6.03;;;3.67;;
2872;SDS011;1444;49.166;7.312;2022-07-01T04:05:37;10.30;;;3.00;;
2872;SDS011;1444;49.166;7.312;2022-07-01T04:08:07;4.40;;;2.83;;
2872;SDS011;1444;49.166;7.312;2022-07-01T04:10:36;4.90;;;3.33;;
2872;SDS011;1444;49.166;7.312;2022-07-01T04:13:04;3.20;;;2.90;;
2872;SDS011;1444;49.166;7.312;2022-07-01T04:15:30;4.97;;;2.60;;
2872;SDS011;1444;49.166;7.312;2022-07-01T04:17:57;2.83;;;2.37;;
2872;SDS011;1444;49.166;7.312;2022-07-01T04:20:24;6.03;;;2.67;;
2872;SDS011;1444;49.166;7.312;2022-07-01T04:22:51;3.90;;;2.73;;
2872;SDS011;1444;49.166;7.312;2022-07-01T04:25:18;6.20;;;3.00;;
2872;SDS011;1444;49.166;7.312;2022-07-01T04:27:45;3.80;;;2.47;;
2872;SDS011;1444;49.166;7.312;2022-07-01T04:30:11;3.00;;;2.80;;
2872;SDS011;1444;49.166;7.312;2022-07-01T04:32:39;3.90;;;1.83;;
2872;SDS011;1444;49.166;7.312;2022-07-01T04:35:07;3.70;;;3.40;;
2872;SDS011;1444;49.166;7.312;2022-07-01T04:37:37;4.17;;;2.50;;
2872;SDS011;1444;49.166;7.312;2022-07-01T04:40:04;2.70;;;2.50;;
2872;SDS011;1444;49.166;7.312;2022-07-01T04:42:33;3.37;;;2.73;;
2872;SDS011;1444;49.166;7.312;2022-07-01T04:44:58;2.97;;;2.43;;
2872;SDS011;1444;49.166;7.312;2022-07-01T04:47:25;2.93;;;2.63;;
2872;SDS011;1444;49.166;7.312;2022-07-01T04:49:57;3.90;;;2.67;;
2872;SDS011;1444;49.166;7.312;2022-07-01T04:52:26;7.23;;;3.10;;
2872;SDS011;1444;49.166;7.312;2022-07-01T04:54:53;3.90;;;3.07;;
2872;SDS011;1444;49.166;7.312;2022-07-01T04:57:20;5.57;;;3.87;;
2872;SDS011;1444;49.166;7.312;2022-07-01T04:59:48;4.93;;;2.70;;
2872;SDS011;1444;49.166;7.312;2022-07-01T05:02:15;6.53;;;3.10;;
2872;SDS011;1444;49.166;7.312;2022-07-01T05:04:41;2.67;;;2.47;;
2872;SDS011;1444;49.166;7.312;2022-07-01T05:07:08;3.77;;;3.00;;
2872;SDS011;1444;49.166;7.312;2022-07-01T05:09:53;8.60;;;3.00;;
2872;SDS011;1444;49.166;7.312;2022-07-01T05:12:20;4.70;;;2.57;;
2872;SDS011;1444;49.166;7.312;2022-07-01T05:14:46;7.00;;;2.60;;
2872;SDS011;1444;49.166;7.312;2022-07-01T05:17:15;4.70;;;3.77;;
2872;SDS011;1444;49.166;7.312;2022-07-01T05:19:41;6.00;;;2.80;;
2872;SDS011;1444;49.166;7.312;2022-07-01T05:22:26;4.07;;;2.70;;
2872;SDS011;1444;49.166;7.312;2022-07-01T05:24:53;5.33;;;2.77;;
2872;SDS011;1444;49.166;7.312;2022-07-01T05:27:20;4.40;;;2.80;;
2872;SDS011;1444;49.166;7.312;2022-07-01T05:29:48;2.50;;;2.20;;
2872;SDS011;1444;49.166;7.312;2022-07-01T05:32:15;8.80;;;3.77;;
2872;SDS011;1444;49.166;7.312;2022-07-01T05:34:41;4.30;;;3.00;;
2872;SDS011;1444;49.166;7.312;2022-07-01T05:37:09;4.43;;;3.60;;
2872;SDS011;1444;49.166;7.312;2022-07-01T05:39:36;6.63;;;3.27;;
2872;SDS011;1444;49.166;7.312;2022-07-01T05:42:03;5.00;;;3.70;;
2872;SDS011;1444;49.166;7.312;2022-07-01T05:44:30;3.47;;;2.37;;
2872;SDS011;1444;49.166;7.312;2022-07-01T05:46:58;5.13;;;2.53;;
2872;SDS011;1444;49.166;7.312;2022-07-01T05:49:25;3.00;;;2.67;;
2872;SDS011;1444;49.166;7.312;2022-07-01T05:51:51;3.57;;;3.20;;
2872;SDS011;1444;49.166;7.312;2022-07-01T05:54:18;7.40;;;3.03;;
2872;SDS011;1444;49.166;7.312;2022-07-01T05:56:44;3.50;;;2.20;;
2872;SDS011;1444;49.166;7.312;2022-07-01T05:59:12;3.63;;;2.83;;
2872;SDS011;1444;49.166;7.312;2022-07-01T06:01:39;5.27;;;2.83;;
2872;SDS011;1444;49.166;7.312;2022-07-01T06:04:07;3.57;;;2.83;;
2872;SDS011;1444;49.166;7.312;2022-07-01T06:06:33;2.20;;;1.80;;
2872;SDS011;1444;49.166;7.312;2022-07-01T06:09:00;3.03;;;2.73;;
2872;SDS011;1444;49.166;7.312;2022-07-01T06:11:27;3.70;;;2.60;;
2872;SDS011;1444;49.166;7.312;2022-07-01T06:13:53;4.83;;;2.93;;
2872;SDS011;1444;49.166;7.312;2022-07-01T06:16:20;8.50;;;3.47;;
2872;SDS011;1444;49.166;7.312;2022-07-01T06:18:47;6.93;;;3.87;;
2872;SDS011;1444;49.166;7.312;2022-07-01T06:21:15;3.40;;;3.10;;
2872;SDS011;1444;49.166;7.312;2022-07-01T06:23:42;3.77;;;2.50;;
2872;SDS011;1444;49.166;7.312;2022-07-01T06:26:10;3.00;;;2.70;;
2872;SDS011;1444;49.166;7.312;2022-07-01T06:28:37;4.17;;;1.97;;
2872;SDS011;1444;49.166;7.312;2022-07-01T06:31:04;7.00;;;2.53;;
2872;SDS011;1444;49.166;7.312;2022-07-01T06:33:30;5.70;;;1.93;;
2872;SDS011;1444;49.166;7.312;2022-07-01T06:35:57;6.60;;;2.50;;
2872;SDS011;1444;49.166;7.312;2022-07-01T06:38:25;2.10;;;1.73;;
2872;SDS011;1444;49.166;7.312;2022-07-01T06:40:52;2.53;;;1.83;;
2872;SDS011;1444;49.166;7.312;2022-07-01T06:43:36;3.77;;;1.87;;
2872;SDS011;1444;49.166;7.312;2022-07-01T06:46:04;5.07;;;2.37;;
2872;SDS011;1444;49.166;7.312;2022-07-01T06:48:31;3.53;;;2.30;;
2872;SDS011;1444;49.166;7.312;2022-07-01T06:50:57;10.77;;;2.47;;
2872;SDS011;1444;49.166;7.312;2022-07-01T06:53:25;2.10;;;1.70;;
2872;SDS011;1444;49.166;7.312;2022-07-01T06:55:52;2.33;;;2.13;;
2872;SDS011;1444;49.166;7.312;2022-07-01T06:58:19;3.60;;;2.03;;
2872;SDS011;1444;49.166;7.312;2022-07-01T07:00:46;2.20;;;1.90;;
2872;SDS011;1444;49.166;7.312;2022-07-01T07:03:13;3.30;;;2.07;;
2872;SDS011;1444;49.166;7.312;2022-07-01T07:05:39;5.90;;;1.97;;
2872;SDS011;1444;49.166;7.312;2022-07-01T07:08:06;2.30;;;2.03;;
2872;SDS011;1444;49.166;7.312;2022-07-01T07:10:34;2.30;;;1.83;;
2872;SDS011;1444;49.166;7.312;2022-07-01T07:13:01;4.17;;;2.60;;
2872;SDS011;1444;49.166;7.312;2022-07-01T07:15:27;3.13;;;2.30;;
2872;SDS011;1444;49.166;7.312;2022-07-01T07:17:54;2.70;;;2.13;;
2872;SDS011;1444;49.166;7.312;2022-07-01T07:20:22;3.03;;;2.40;;
2872;SDS011;1444;49.166;7.312;2022-07-01T07:22:49;2.73;;;2.17;;
2872;SDS011;1444;49.166;7.312;2022-07-01T07:25:16;4.63;;;2.40;;
2872;SDS011;1444;49.166;7.312;2022-07-01T07:27:44;3.43;;;2.30;;
2872;SDS011;1444;49.166;7.312;2022-07-01T07:30:11;2.70;;;2.50;;
2872;SDS011;1444;49.166;7.312;2022-07-01T07:32:38;2.47;;;2.27;;
2872;SDS011;1444;49.166;7.312;2022-07-01T07:35:05;6.20;;;2.90;;
2872;SDS011;1444;49.166;7.312;2022-07-01T07:37:32;5.60;;;1.90;;
2872;SDS011;1444;49.166;7.312;2022-07-01T07:39:59;3.27;;;2.30;;
2872;SDS011;1444;49.166;7.312;2022-07-01T07:42:26;6.43;;;2.27;;
2872;SDS011;1444;49.166;7.312;2022-07-01T07:44:54;2.50;;;2.30;;
2872;SDS011;1444;49.166;7.312;2022-07-01T07:47:21;2.67;;;2.47;;
2872;SDS011;1444;49.166;7.312;2022-07-01T07:49:47;5.83;;;2.80;;
2872;SDS011;1444;49.166;7.312;2022-07-01T07:52:14;3.77;;;3.00;;
2872;SDS011;1444;49.166;7.312;2022-07-01T07:54:41;4.33;;;2.17;;
2872;SDS011;1444;49.166;7.312;2022-07-01T07:57:07;4.20;;;2.20;;
2872;SDS011;1444;49.166;7.312;2022-07-01T07:59:34;2.37;;;1.93;;
2872;SDS011;1444;49.166;7.312;2022-07-01T08:02:03;2.20;;;1.83;;
2872;SDS011;1444;49.166;7.312;2022-07-01T08:04:30;2.40;;;2.03;;
2872;SDS011;1444;49.166;7.312;2022-07-01T08:06:56;4.67;;;2.20;;
2872;SDS011;1444;49.166;7.312;2022-07-01T08:09:23;4.00;;;2.23;;
2872;SDS011;1444;49.166;7.312;2022-07-01T08:11:50;6.10;;;2.37;;
2872;SDS011;1444;49.166;7.312;2022-07-01T08:14:17;2.70;;;2.30;;
2872;SDS011;1444;49.166;7.312;2022-07-01T08:16:43;3.30;;;1.87;;
2872;SDS011;1444;49.166;7.312;2022-07-01T08:19:12;5.10;;;2.13;;
2872;SDS011;1444;49.166;7.312;2022-07-01T08:21:38;2.30;;;1.90;;
2872;SDS011;1444;49.166;7.312;2022-07-01T08:24:05;2.87;;;2.57;;
2872;SDS011;1444;49.166;7.312;2022-07-01T08:26:32;3.33;;;1.97;;
2872;SDS011;1444;49.166;7.312;2022-07-01T08:28:59;3.00;;;2.50;;
2872;SDS011;1444;49.166;7.312;2022-07-01T08:31:25;5.33;;;2.00;;
2872;SDS011;1444;49.166;7.312;2022-07-01T08:33:52;5.43;;;2.07;;
2872;SDS011;1444;49.166;7.312;2022-07-01T08:36:20;7.50;;;2.67;;
2872;SDS011;1444;49.166;7.312;2022-07-01T08:38:47;2.30;;;2.00;;
2872;SDS011;1444;49.166;7.312;2022-07-01T08:41:14;5.43;;;2.10;;
2872;SDS011;1444;49.166;7.312;2022-07-01T08:43:42;3.60;;;1.90;;
2872;SDS011;1444;49.166;7.312;2022-07-01T08:46:09;2.13;;;1.77;;
2872;SDS011;1444;49.166;7.312;2022-07-01T08:48:36;8.70;;;1.80;;
2872;SDS011;1444;49.166;7.312;2022-07-01T08:51:07;1.90;;;1.70;;
2872;SDS011;1444;49.166;7.312;2022-07-01T08:53:35;2.00;;;1.67;;
2872;SDS011;1444;49.166;7.312;2022-07-01T08:56:02;2.83;;;1.47;;
2872;SDS011;1444;49.166;7.312;2022-07-01T08:58:47;8.23;;;1.60;;
2872;SDS011;1444;49.166;7.312;2022-07-01T09:01:15;2.40;;;1.60;;
2872;SDS011;1444;49.166;7.312;2022-07-01T09:03:45;2.60;;;1.60;;
2872;SDS011;1444;49.166;7.312;2022-07-01T09:06:14;2.87;;;1.50;;
2872;SDS011;1444;49.166;7.312;2022-07-01T09:08:44;3.10;;;1.27;;
2872;SDS011;1444;49.166;7.312;2022-07-01T09:11:12;2.00;;;1.63;;
2872;SDS011;1444;49.166;7.312;2022-07-01T09:13:40;11.60;;;1.63;;
2872;SDS011;1444;49.166;7.312;2022-07-01T09:16:10;1.90;;;1.50;;
2872;SDS011;1444;49.166;7.312;2022-07-01T09:18:38;3.80;;;1.60;;
2872;SDS011;1444;49.166;7.312;2022-07-01T09:21:07;2.67;;;1.73;;
2872;SDS011;1444;49.166;7.312;2022-07-01T09:23:34;2.00;;;1.20;;
2872;SDS011;1444;49.166;7.312;2022-07-01T09:26:02;3.50;;;1.90;;
2872;SDS011;1444;49.166;7.312;2022-07-01T09:28:29;3.93;;;1.33;;
2872;SDS011;1444;49.166;7.312;2022-07-01T09:30:56;2.57;;;1.43;;
2872;SDS011;1444;49.166;7.312;2022-07-01T09:33:24;2.87;;;1.23;;
2872;SDS011;1444;49.166;7.312;2022-07-01T09:35:51;6.90;;;1.43;;
2872;SDS011;1444;49.166;7.312;2022-07-01T09:38:19;2.10;;;1.30;;
2872;SDS011;1444;49.166;7.312;2022-07-01T09:40:49;2.67;;;1.37;;
2872;SDS011;1444;49.166;7.312;2022-07-01T09:43:19;4.20;;;1.33;;
2872;SDS011;1444;49.166;7.312;2022-07-01T09:45:51;2.73;;;1.20;;
2872;SDS011;1444;49.166;7.312;2022-07-01T09:48:19;2.27;;;1.20;;
2872;SDS011;1444;49.166;7.312;2022-07-01T09:50:46;2.83;;;1.50;;
2872;SDS011;1444;49.166;7.312;2022-07-01T09:53:13;1.73;;;1.17;;
2872;SDS011;1444;49.166;7.312;2022-07-01T09:55:40;2.57;;;1.53;;
2872;SDS011;1444;49.166;7.312;2022-07-01T09:58:08;1.97;;;1.50;;
2872;SDS011;1444;49.166;7.312;2022-07-01T10:00:36;3.80;;;1.57;;
2872;SDS011;1444;49.166;7.312;2022-07-01T10:03:04;4.63;;;1.23;;
2872;SDS011;1444;49.166;7.312;2022-07-01T10:05:34;2.83;;;1.10;;
2872;SDS011;1444;49.166;7.312;2022-07-01T10:08:09;2.73;;;1.20;;
2872;SDS011;1444;49.166;7.312;2022-07-01T10:10:56;1.60;;;0.90;;
2872;SDS011;1444;49.166;7.312;2022-07-01T10:13:33;3.60;;;1.30;;
2872;SDS011;1444;49.166;7.312;2022-07-01T10:16:03;1.90;;;1.13;;
2872;SDS011;1444;49.166;7.312;2022-07-01T10:18:30;3.13;;;1.27;;
2872;SDS011;1444;49.166;7.312;2022-07-01T10:20:57;4.37;;;1.50;;
2872;SDS011;1444;49.166;7.312;2022-07-01T10:23:27;4.20;;;1.00;;
2872;SDS011;1444;49.166;7.312;2022-07-01T10:26:03;2.20;;;1.33;;
2872;SDS011;1444;49.166;7.312;2022-07-01T10:28:40;1.80;;;1.10;;
2872;SDS011;1444;49.166;7.312;2022-07-01T10:31:10;2.10;;;1.07;;
2872;SDS011;1444;49.166;7.312;2022-07-01T10:33:42;3.53;;;1.43;;
2872;SDS011;1444;49.166;7.312;2022-07-01T10:36:12;3.80;;;1.37;;
2872;SDS011;1444;49.166;7.312;2022-07-01T10:41:40;1.90;;;1.00;;
2872;SDS011;1444;49.166;7.312;2022-07-01T10:44:09;2.57;;;1.47;;
2872;SDS011;1444;49.166;7.312;2022-07-01T10:46:38;3.60;;;1.30;;
2872;SDS011;1444;49.166;7.312;2022-07-01T10:49:08;2.30;;;1.10;;
2872;SDS011;1444;49.166;7.312;2022-07-01T10:51:45;2.00;;;1.20;;
2872;SDS011;1444;49.166;7.312;2022-07-01T10:54:13;1.80;;;1.20;;
2872;SDS011;1444;49.166;7.312;2022-07-01T10:57:26;2.73;;;1.20;;
2872;SDS011;1444;49.166;7.312;2022-07-01T11:03:20;2.80;;;1.10;;
2872;SDS011;1444;49.166;7.312;2022-07-01T11:05:50;2.67;;;1.00;;
2872;SDS011;1444;49.166;7.312;2022-07-01T11:08:18;4.30;;;1.27;;
2872;SDS011;1444;49.166;7.312;2022-07-01T11:10:49;1.90;;;1.23;;
2872;SDS011;1444;49.166;7.312;2022-07-01T11:13:16;2.40;;;1.10;;
2872;SDS011;1444;49.166;7.312;2022-07-01T11:15:45;2.10;;;1.00;;
2872;SDS011;1444;49.166;7.312;2022-07-01T11:18:13;2.83;;;1.00;;
2872;SDS011;1444;49.166;7.312;2022-07-01T11:20:42;2.57;;;1.00;;
2872;SDS011;1444;49.166;7.312;2022-07-01T11:23:09;1.90;;;1.20;;
2872;SDS011;1444;49.166;7.312;2022-07-01T11:25:36;2.53;;;1.30;;
2872;SDS011;1444;49.166;7.312;2022-07-01T11:28:03;2.10;;;1.37;;
2872;SDS011;1444;49.166;7.312;2022-07-01T11:30:30;3.43;;;1.17;;
2872;SDS011;1444;49.166;7.312;2022-07-01T11:32:57;2.73;;;1.07;;
2872;SDS011;1444;49.166;7.312;2022-07-01T11:35:25;1.60;;;0.73;;
2872;SDS011;1444;49.166;7.312;2022-07-01T11:38:12;1.87;;;1.20;;
2872;SDS011;1444;49.166;7.312;2022-07-01T11:40:59;2.07;;;0.87;;
2872;SDS011;1444;49.166;7.312;2022-07-01T11:43:27;2.77;;;0.80;;
2872;SDS011;1444;49.166;7.312;2022-07-01T11:45:56;4.60;;;1.10;;
2872;SDS011;1444;49.166;7.312;2022-07-01T11:48:28;1.67;;;1.03;;
2872;SDS011;1444;49.166;7.312;2022-07-01T11:50:57;3.03;;;1.10;;
2872;SDS011;1444;49.166;7.312;2022-07-01T11:53:26;2.67;;;0.90;;
2872;SDS011;1444;49.166;7.312;2022-07-01T11:55:53;1.70;;;0.90;;
2872;SDS011;1444;49.166;7.312;2022-07-01T11:58:20;2.03;;;1.07;;
2872;SDS011;1444;49.166;7.312;2022-07-01T12:00:46;1.80;;;1.10;;
2872;SDS011;1444;49.166;7.312;2022-07-01T12:03:13;2.80;;;1.00;;
2872;SDS011;1444;49.166;7.312;2022-07-01T12:05:55;5.43;;;1.27;;
2872;SDS011;1444;49.166;7.312;2022-07-01T12:08:22;3.03;;;1.23;;
2872;SDS011;1444;49.166;7.312;2022-07-01T12:10:51;2.43;;;0.97;;
2872;SDS011;1444;49.166;7.312;2022-07-01T12:13:20;1.80;;;1.07;;
2872;SDS011;1444;49.166;7.312;2022-07-01T12:15:48;2.57;;;1.00;;
2872;SDS011;1444;49.166;7.312;2022-07-01T12:18:15;2.67;;;1.20;;
2872;SDS011;1444;49.166;7.312;2022-07-01T12:20:47;1.70;;;0.90;;
2872;SDS011;1444;49.166;7.312;2022-07-01T12:23:15;1.80;;;0.80;;
2872;SDS011;1444;49.166;7.312;2022-07-01T12:25:45;2.97;;;0.90;;
2872;SDS011;1444;49.166;7.312;2022-07-01T12:28:24;1.87;;;1.13;;
2872;SDS011;1444;49.166;7.312;2022-07-01T12:30:58;3.67;;;0.90;;
2872;SDS011;1444;49.166;7.312;2022-07-01T12:33:27;2.60;;;0.83;;
2872;SDS011;1444;49.166;7.312;2022-07-01T12:35:54;2.20;;;0.80;;
2872;SDS011;1444;49.166;7.312;2022-07-01T12:38:21;1.70;;;0.80;;
2872;SDS011;1444;49.166;7.312;2022-07-01T12:40:47;2.17;;;1.00;;
2872;SDS011;1444;49.166;7.312;2022-07-01T12:43:25;1.90;;;0.93;;
2872;SDS011;1444;49.166;7.312;2022-07-01T12:45:55;1.80;;;1.00;;
2872;SDS011;1444;49.166;7.312;2022-07-01T12:48:23;2.00;;;1.20;;
2872;SDS011;1444;49.166;7.312;2022-07-01T12:50:51;2.00;;;0.97;;
2872;SDS011;1444;49.166;7.312;2022-07-01T12:53:20;2.87;;;1.00;;
2872;SDS011;1444;49.166;7.312;2022-07-01T12:55:47;2.73;;;0.93;;
2872;SDS011;1444;49.166;7.312;2022-07-01T12:58:16;3.13;;;0.97;;
2872;SDS011;1444;49.166;7.312;2022-07-01T13:00:45;1.60;;;0.73;;
2872;SDS011;1444;49.166;7.312;2022-07-01T13:03:13;1.60;;;0.80;;
2872;SDS011;1444;49.166;7.312;2022-07-01T13:05:40;2.97;;;1.10;;
2872;SDS011;1444;49.166;7.312;2022-07-01T13:08:08;1.73;;;0.90;;
2872;SDS011;1444;49.166;7.312;2022-07-01T13:10:36;1.60;;;0.80;;
2872;SDS011;1444;49.166;7.312;2022-07-01T13:13:03;1.80;;;0.90;;
2872;SDS011;1444;49.166;7.312;2022-07-01T13:15:30;1.60;;;0.80;;
2872;SDS011;1444;49.166;7.312;2022-07-01T13:17:58;1.70;;;0.87;;
2872;SDS011;1444;49.166;7.312;2022-07-01T13:20:25;2.20;;;0.90;;
2872;SDS011;1444;49.166;7.312;2022-07-01T13:22:52;4.03;;;0.93;;
2872;SDS011;1444;49.166;7.312;2022-07-01T13:25:19;2.10;;;1.00;;
2872;SDS011;1444;49.166;7.312;2022-07-01T13:27:46;3.97;;;1.30;;
2872;SDS011;1444;49.166;7.312;2022-07-01T13:30:13;4.23;;;0.90;;
2872;SDS011;1444;49.166;7.312;2022-07-01T13:32:41;1.80;;;0.80;;
2872;SDS011;1444;49.166;7.312;2022-07-01T13:35:10;2.17;;;1.17;;
2872;SDS011;1444;49.166;7.312;2022-07-01T13:37:39;2.43;;;0.80;;
2872;SDS011;1444;49.166;7.312;2022-07-01T13:40:06;2.90;;;1.00;;
2872;SDS011;1444;49.166;7.312;2022-07-01T13:42:34;1.70;;;0.90;;
2872;SDS011;1444;49.166;7.312;2022-07-01T13:45:01;1.70;;;0.67;;
2872;SDS011;1444;49.166;7.312;2022-07-01T13:47:28;1.87;;;0.70;;
2872;SDS011;1444;49.166;7.312;2022-07-01T13:49:55;3.13;;;1.33;;
2872;SDS011;1444;49.166;7.312;2022-07-01T13:52:23;5.60;;;1.07;;
2872;SDS011;1444;49.166;7.312;2022-07-01T13:54:53;2.67;;;1.03;;
2872;SDS011;1444;49.166;7.312;2022-07-01T13:57:19;2.10;;;0.80;;
2872;SDS011;1444;49.166;7.312;2022-07-01T13:59:46;1.77;;;0.80;;
2872;SDS011;1444;49.166;7.312;2022-07-01T14:02:13;1.60;;;0.83;;
2872;SDS011;1444;49.166;7.312;2022-07-01T14:04:42;1.77;;;0.80;;
2872;SDS011;1444;49.166;7.312;2022-07-01T14:07:09;2.33;;;1.03;;
2872;SDS011;1444;49.166;7.312;2022-07-01T14:09:37;1.87;;;1.27;;
2872;SDS011;1444;49.166;7.312;2022-07-01T14:12:05;3.83;;;0.80;;
2872;SDS011;1444;49.166;7.312;2022-07-01T14:14:32;1.70;;;0.73;;
2872;SDS011;1444;49.166;7.312;2022-07-01T14:16:59;1.70;;;0.80;;
2872;SDS011;1444;49.166;7.312;2022-07-01T14:19:26;2.60;;;0.93;;
2872;SDS011;1444;49.166;7.312;2022-07-01T14:21:53;3.03;;;0.80;;
2872;SDS011;1444;49.166;7.312;2022-07-01T14:24:20;1.60;;;0.77;;
2872;SDS011;1444;49.166;7.312;2022-07-01T14:26:48;2.60;;;0.80;;
2872;SDS011;1444;49.166;7.312;2022-07-01T14:29:14;3.40;;;0.70;;
2872;SDS011;1444;49.166;7.312;2022-07-01T14:31:41;1.70;;;0.80;;
2872;SDS011;1444;49.166;7.312;2022-07-01T14:34:08;4.10;;;0.70;;
2872;SDS011;1444;49.166;7.312;2022-07-01T14:36:34;3.80;;;0.90;;
2872;SDS011;1444;49.166;7.312;2022-07-01T14:39:01;1.90;;;1.10;;
2872;SDS011;1444;49.166;7.312;2022-07-01T14:41:28;1.70;;;0.70;;
2872;SDS011;1444;49.166;7.312;2022-07-01T14:43:56;1.60;;;0.60;;
2872;SDS011;1444;49.166;7.312;2022-07-01T14:46:22;3.20;;;0.90;;
2872;SDS011;1444;49.166;7.312;2022-07-01T14:48:49;2.43;;;0.70;;
2872;SDS011;1444;49.166;7.312;2022-07-01T14:51:16;1.63;;;0.80;;
2872;SDS011;1444;49.166;7.312;2022-07-01T14:53:42;3.57;;;0.80;;
2872;SDS011;1444;49.166;7.312;2022-07-01T14:56:09;1.77;;;0.83;;
2872;SDS011;1444;49.166;7.312;2022-07-01T14:58:36;1.80;;;0.90;;
2872;SDS011;1444;49.166;7.312;2022-07-01T15:01:04;2.63;;;2.13;;
2872;SDS011;1444;49.166;7.312;2022-07-01T15:03:30;2.73;;;0.80;;
2872;SDS011;1444;49.166;7.312;2022-07-01T15:05:57;1.60;;;0.70;;
2872;SDS011;1444;49.166;7.312;2022-07-01T15:08:24;3.90;;;0.83;;
2872;SDS011;1444;49.166;7.312;2022-07-01T15:10:50;3.20;;;0.77;;
2872;SDS011;1444;49.166;7.312;2022-07-01T15:13:27;1.60;;;0.70;;
2872;SDS011;1444;49.166;7.312;2022-07-01T15:15:54;3.60;;;0.80;;
2872;SDS011;1444;49.166;7.312;2022-07-01T15:18:23;2.30;;;0.80;;
2872;SDS011;1444;49.166;7.312;2022-07-01T15:20:49;1.70;;;0.77;;
2872;SDS011;1444;49.166;7.312;2022-07-01T15:23:16;1.60;;;0.60;;
2872;SDS011;1444;49.166;7.312;2022-07-01T15:25:43;1.80;;;0.80;;
2872;SDS011;1444;49.166;7.312;2022-07-01T15:28:09;1.70;;;0.70;;